Ana Sayfa
METAR-TAF:

METAR-TAF

Havaalanları :

Cibuti, Cibuti

Enlem: 11-33N, Boylam: 043-10E, yükseklik: 49 m

METAR: eksik

Saat: 01:31 (22:31 UTC)

Tahmin

Rapor saat 17:00 UTC de 5 saat ve 31 dakika önce yapıldı.
Ayın 21'si saat 18 UTC'den ayın 22'si saat 18 UTC'ye kadar geçerli Tahmin
Rüzgar güneydoğudan 10 kt
Görüş mesafesi 10 km veya daha fazla
2300 ft yükseklikte az bulutlu
3000 ft yükseklikte az bulutlu, Kümülonimbus.
13300 ft yükseklikte az bulutlu
Dönüşüyor
ayın 22'si saat 00 UTC'den ayın 22'si saat 06 UTC'ye kadar
Rüzgar güney/güneybatıdan 5 kt
2000 ft yükseklikte az bulutlu
26600 ft yükseklikte az bulutlu
Dönüşüyor
ayın 22'si saat 06 UTC'den ayın 22'si saat 12 UTC'ye kadar
Rüzgar doğudan 10 kt ve 15 kt'a kadar ani rüzgarlar
2300 ft yükseklikte parçalı bulutlu
3000 ft yükseklikte parçalı bulutlu

TAF: HDAM 211700Z 2118/2218 14010KT 9999 FEW023 FEW030CB FEW133 BECMG 2200/2206 21005KT FEW020 FEW266 BECMG 2206/2212 10010G15KT SCT023 SCT030

4.000'den fazla havaalanı için hava durumu gözlemleri ve tahminleri (METAR ve TAF raporları).

Kullanılabilir istasyonlar harita üzerinde sarı ve kırmızı noktalarla gösterilir.

İstasyonun adını görmek için fareyi noktanın üzerinde gezdirin.

Sonrasında hava gözlem ve tahminlerini görmek için tıklayın.

Haritayı değiştirmek için: yaklaştırmak için siyah artı işaretli yeşil düğmeye ve uzaklaştırmak için de eksi işaretli düğmeye hızla tıklayın; bitişik haritalar için yeşil okları kullanın.


METAR-TAF: